Time;durP1;ratioP1;P1;durP2;ratioP2;P2;SDS_P1;SDS_P2;PMS_P1;PMS_P2;Temp;Humidity;BMP_temperature;BMP_pressure;BME280_temperature;BME280_humidity;BME280_pressure;Samples;Min_cycle;Max_cycle;Signal;HPM_P1;HPM_P2
2023/01/18 00:01:25;;;;;;;9.38;4.75;;;-0.10;99.90;;;;;;5048775;28;20047;-55
2023/01/18 00:03:51;;;;;;;4.80;4.20;;;-0.20;99.90;;;;;;5047221;28;20044;-58
2023/01/18 00:06:17;;;;;;;10.05;4.97;;;-0.10;99.90;;;;;;5045387;28;20079;-56
2023/01/18 00:08:43;;;;;;;5.00;4.23;;;-0.20;99.90;;;;;;5048177;28;20119;-58
2023/01/18 00:11:14;;;;;;;7.50;5.20;;;-0.20;99.90;;;;;;5048792;28;20033;-60
2023/01/18 00:13:40;;;;;;;7.63;4.85;;;-0.20;99.90;;;;;;5045740;28;20406;-55
2023/01/18 00:16:16;;;;;;;6.28;5.60;;;-0.20;99.90;;;;;;5046052;28;20029;-54
2023/01/18 00:18:43;;;;;;;6.28;4.82;;;-0.20;99.90;;;;;;5047890;28;20045;-54
2023/01/18 00:21:11;;;;;;;10.52;5.63;;;-0.20;99.90;;;;;;5048262;28;20037;-59
2023/01/18 00:23:36;;;;;;;8.02;5.18;;;-0.20;99.90;;;;;;5047549;28;20064;-53
2023/01/18 00:26:04;;;;;;;11.18;5.00;;;-0.20;99.90;;;;;;5048531;28;20351;-56
2023/01/18 00:28:30;;;;;;;9.70;6.03;;;-0.20;99.90;;;;;;5048262;28;20037;-54
2023/01/18 00:30:56;;;;;;;10.60;6.30;;;-0.20;99.90;;;;;;5047249;28;20067;-54
2023/01/18 00:33:21;;;;;;;7.13;5.30;;;-0.20;99.90;;;;;;5050465;28;20340;-56
2023/01/18 00:36:01;;;;;;;12.30;5.60;;;-0.20;99.90;;;;;;5067373;28;20049;-59
2023/01/18 00:38:27;;;;;;;5.55;4.72;;;-0.20;99.90;;;;;;5050565;28;20040;-53
2023/01/18 00:40:53;;;;;;;9.45;5.10;;;-0.20;99.90;;;;;;5052303;28;20028;-57
2023/01/18 00:43:37;;;;;;;7.32;4.97;;;-0.20;99.90;;;;;;5051461;28;20036;-56
2023/01/18 00:46:08;;;;;;;7.05;5.38;;;-0.30;99.90;;;;;;5051654;28;20624;-56
2023/01/18 00:48:34;;;;;;;8.85;5.55;;;-0.30;99.90;;;;;;5051644;28;20037;-57
2023/01/18 00:51:00;;;;;;;8.10;5.43;;;-0.30;99.90;;;;;;5052154;28;20148;-57
2023/01/18 00:53:26;;;;;;;8.00;5.03;;;-0.30;99.90;;;;;;5051363;28;20115;-56
2023/01/18 00:55:51;;;;;;;7.45;5.25;;;-0.40;99.90;;;;;;5051896;28;20094;-54
2023/01/18 00:58:17;;;;;;;7.97;6.10;;;-0.40;99.90;;;;;;5051341;28;20229;-56
2023/01/18 01:00:42;;;;;;;8.57;6.43;;;-0.40;99.90;;;;;;5052046;28;20417;-56
2023/01/18 01:03:08;;;;;;;8.00;5.10;;;-0.30;99.90;;;;;;5051244;28;20163;-57
2023/01/18 01:08:20;;;;;;;9.77;6.13;;;-0.30;99.90;;;;;;5050924;28;20149;-58
2023/01/18 01:10:47;;;;;;;9.00;6.38;;;-0.30;99.90;;;;;;5051630;28;20112;-57
2023/01/18 01:27:01;;;;;;;9.05;6.65;;;-0.30;99.90;;;;;;5049344;28;20048;-58
2023/01/18 01:29:26;;;;;;;6.80;5.97;;;-0.30;99.90;;;;;;5049884;28;20049;-56
2023/01/18 01:31:52;;;;;;;8.77;6.07;;;-0.30;99.90;;;;;;5049644;28;20037;-59
2023/01/18 01:34:17;;;;;;;9.00;5.33;;;-0.30;99.90;;;;;;5049147;28;20041;-55
2023/01/18 01:36:43;;;;;;;15.00;7.07;;;-0.30;99.90;;;;;;5049148;28;20072;-56
2023/01/18 01:39:09;;;;;;;14.83;7.37;;;-0.30;99.90;;;;;;5049880;28;20127;-59
2023/01/18 01:41:35;;;;;;;8.45;6.28;;;-0.30;99.90;;;;;;5047147;28;20092;-57
2023/01/18 01:44:26;;;;;;;11.25;6.28;;;-0.30;99.90;;;;;;5048556;28;20175;-58
2023/01/18 01:47:24;;;;;;;10.20;6.28;;;-0.40;99.90;;;;;;5046387;28;20076;-56
2023/01/18 01:49:55;;;;;;;7.72;5.85;;;-0.40;99.90;;;;;;5049711;28;20041;-58
2023/01/18 01:52:26;;;;;;;7.45;6.35;;;-0.40;99.90;;;;;;5049535;28;20060;-56
2023/01/18 01:55:00;;;;;;;8.27;6.85;;;-0.40;99.90;;;;;;5048164;28;20194;-57
2023/01/18 01:57:39;;;;;;;7.80;6.53;;;-0.50;99.90;;;;;;5048967;28;20033;-55
2023/01/18 02:00:21;;;;;;;9.32;5.72;;;-0.60;99.90;;;;;;5049897;28;20263;-59
2023/01/18 02:02:55;;;;;;;11.30;7.35;;;-0.60;99.90;;;;;;5048888;28;20110;-58
2023/01/18 02:05:20;;;;;;;9.35;6.35;;;-0.60;99.90;;;;;;5047278;28;20039;-56
2023/01/18 02:07:46;;;;;;;8.23;5.97;;;-0.60;99.90;;;;;;5049209;28;20045;-56
2023/01/18 02:10:12;;;;;;;11.30;6.32;;;-0.60;99.90;;;;;;5050000;28;20299;-57
2023/01/18 02:12:39;;;;;;;11.47;7.70;;;-0.60;99.90;;;;;;5049644;28;20037;-59
2023/01/18 02:15:06;;;;;;;10.38;6.63;;;-0.60;99.90;;;;;;5048594;28;20093;-56
2023/01/18 02:17:50;;;;;;;9.48;5.43;;;-0.50;99.90;;;;;;5048420;28;20037;-54
2023/01/18 02:20:36;;;;;;;8.35;6.53;;;-0.50;99.90;;;;;;5049600;28;20044;-57
2023/01/18 02:23:02;;;;;;;9.05;6.20;;;-0.50;99.90;;;;;;5048322;28;20037;-56
2023/01/18 02:25:46;;;;;;;16.47;7.30;;;-0.50;99.90;;;;;;5013130;28;1050058;-57
2023/01/18 02:28:38;;;;;;;9.27;6.47;;;-0.50;99.90;;;;;;5049306;28;20425;-56
2023/01/18 02:31:17;;;;;;;8.00;6.18;;;-0.50;99.90;;;;;;5050452;28;20037;-56
2023/01/18 02:34:01;;;;;;;7.35;5.60;;;-0.50;99.90;;;;;;5049099;28;20128;-56
2023/01/18 02:36:33;;;;;;;8.75;5.63;;;-0.50;99.90;;;;;;5049622;28;20041;-56
2023/01/18 02:39:22;;;;;;;9.23;6.10;;;-0.50;99.90;;;;;;5047171;28;20048;-58
2023/01/18 02:47:30;;;;;;;15.20;7.60;;;-0.60;99.90;;;;;;5037743;28;20116;-54
2023/01/18 02:49:56;;;;;;;8.27;7.40;;;-0.60;99.90;;;;;;5050387;28;20103;-55
2023/01/18 02:52:41;;;;;;;;;;;-0.60;99.90;;;;;;5051044;28;20041;-57
2023/01/18 02:55:12;;;;;;;9.40;6.53;;;-0.60;99.90;;;;;;5048497;28;19928;-56
2023/01/18 02:57:38;;;;;;;10.68;6.72;;;-0.60;99.90;;;;;;5048642;28;20116;-56
2023/01/18 03:00:07;;;;;;;8.57;6.82;;;-0.60;99.90;;;;;;5050888;28;20457;-57
2023/01/18 03:02:34;;;;;;;7.75;6.00;;;-0.70;99.90;;;;;;5050442;28;20513;-58
2023/01/18 03:05:00;;;;;;;15.68;7.72;;;-0.60;99.90;;;;;;5049395;28;20059;-57
2023/01/18 03:07:28;;;;;;;11.05;6.95;;;-0.60;99.90;;;;;;5050065;28;20040;-57
2023/01/18 03:09:55;;;;;;;10.10;6.50;;;-0.70;99.90;;;;;;5050352;28;20056;-56
2023/01/18 03:12:44;;;;;;;9.98;7.78;;;-0.60;99.90;;;;;;5050320;28;20044;-55
2023/01/18 03:15:15;;;;;;;10.95;6.90;;;-0.60;99.90;;;;;;5049133;28;20493;-54
2023/01/18 03:17:48;;;;;;;15.55;8.07;;;-0.70;99.90;;;;;;5049948;28;20032;-54
2023/01/18 03:20:18;;;;;;;11.43;7.53;;;-0.60;99.90;;;;;;5049968;28;20100;-57
2023/01/18 03:25:43;;;;;;;11.02;7.72;;;-0.60;99.90;;;;;;5049621;28;20049;-56
2023/01/18 03:33:52;;;;;;;11.48;7.72;;;-0.60;99.90;;;;;;5049382;28;20049;-55
2023/01/18 03:36:30;;;;;;;9.32;6.75;;;-0.60;99.90;;;;;;5049842;28;20064;-54
2023/01/18 03:39:00;;;;;;;16.77;9.70;;;-0.60;99.90;;;;;;5048359;28;20341;-55
2023/01/18 03:41:29;;;;;;;12.82;8.55;;;-0.60;99.90;;;;;;5049495;28;20122;-58
2023/01/18 03:44:03;;;;;;;9.82;8.27;;;-0.60;99.90;;;;;;5049352;28;20068;-55
2023/01/18 03:46:31;;;;;;;11.20;8.10;;;-0.60;99.90;;;;;;5049736;28;20122;-58
2023/01/18 03:48:58;;;;;;;13.50;8.18;;;-0.60;99.90;;;;;;5048928;28;20124;-55
2023/01/18 03:51:46;;;;;;;;;;;-0.60;99.90;;;;;;5049447;28;20496;-53
2023/01/18 03:54:33;;;;;;;20.58;9.00;;;-0.60;99.90;;;;;;5049251;28;19920;-57
2023/01/18 03:57:11;;;;;;;11.77;8.68;;;-0.60;99.90;;;;;;5049420;28;20113;-59
2023/01/18 03:59:38;;;;;;;12.88;8.52;;;-0.70;99.90;;;;;;5048941;28;20090;-58
2023/01/18 04:02:05;;;;;;;9.23;7.72;;;-0.70;99.90;;;;;;5048435;28;20041;-56
2023/01/18 04:04:31;;;;;;;12.32;8.65;;;-0.60;99.90;;;;;;5049011;28;20083;-56
2023/01/18 04:06:57;;;;;;;11.30;7.80;;;-0.60;99.90;;;;;;5048732;28;20418;-58
2023/01/18 04:09:23;;;;;;;13.87;9.00;;;-0.70;99.90;;;;;;5049765;28;20048;-55
2023/01/18 04:11:49;;;;;;;12.40;9.02;;;-0.70;99.90;;;;;;5049239;28;20045;-56
2023/01/18 04:14:15;;;;;;;15.03;9.47;;;-0.70;99.90;;;;;;5047806;28;20407;-53
2023/01/18 04:16:40;;;;;;;11.30;9.00;;;-0.70;99.90;;;;;;5049601;28;20044;-56
2023/01/18 04:19:07;;;;;;;10.70;8.67;;;-0.70;99.90;;;;;;5049100;28;20063;-58
2023/01/18 04:21:33;;;;;;;12.95;9.10;;;-0.70;99.90;;;;;;5049578;28;20041;-56
2023/01/18 04:23:59;;;;;;;10.35;8.80;;;-0.70;99.90;;;;;;5048388;28;20037;-54
2023/01/18 04:26:25;;;;;;;10.43;8.13;;;-0.70;99.90;;;;;;5048847;28;20387;-57
2023/01/18 04:28:50;;;;;;;12.33;8.53;;;-0.70;99.90;;;;;;5048904;28;20037;-57
2023/01/18 04:31:16;;;;;;;13.50;9.77;;;-0.70;99.90;;;;;;5049507;28;20099;-56
2023/01/18 04:33:42;;;;;;;12.63;8.83;;;-0.70;99.90;;;;;;5048035;28;20037;-53
2023/01/18 04:36:07;;;;;;;15.40;8.40;;;-0.70;99.90;;;;;;5049387;28;20036;-55
2023/01/18 04:38:33;;;;;;;15.07;8.53;;;-0.70;99.90;;;;;;5048806;28;20048;-56
2023/01/18 04:41:05;;;;;;;10.23;8.00;;;-0.60;99.90;;;;;;5049073;28;20374;-57
2023/01/18 04:43:31;;;;;;;12.07;9.25;;;-0.70;99.90;;;;;;5047663;28;20045;-56
2023/01/18 04:45:57;;;;;;;11.80;8.87;;;-0.70;99.90;;;;;;5049376;28;20049;-58
2023/01/18 04:48:23;;;;;;;13.55;8.45;;;-0.70;99.90;;;;;;5049096;28;20051;-56
2023/01/18 04:50:49;;;;;;;12.15;8.90;;;-0.70;99.90;;;;;;5048989;28;20083;-59
2023/01/18 04:53:16;;;;;;;11.60;8.48;;;-0.70;99.90;;;;;;5047613;28;20044;-58
2023/01/18 04:55:42;;;;;;;16.38;9.35;;;-0.70;99.90;;;;;;5048896;28;20049;-58
2023/01/18 04:58:08;;;;;;;18.50;9.60;;;-0.70;99.90;;;;;;5048285;28;20033;-56
2023/01/18 05:00:34;;;;;;;16.02;10.10;;;-0.70;99.90;;;;;;5049531;28;20040;-54
2023/01/18 05:02:59;;;;;;;11.43;8.73;;;-0.70;99.90;;;;;;5048230;28;20037;-56
2023/01/18 05:05:25;;;;;;;12.03;9.27;;;-0.70;99.90;;;;;;5048909;28;20077;-57
2023/01/18 05:07:51;;;;;;;14.20;9.17;;;-0.70;99.90;;;;;;5048671;28;20033;-56
2023/01/18 05:10:16;;;;;;;13.60;9.17;;;-0.70;99.90;;;;;;5048779;28;20338;-58
2023/01/18 05:12:42;;;;;;;11.47;9.10;;;-0.70;99.90;;;;;;5048432;28;20040;-55
2023/01/18 05:15:08;;;;;;;17.87;9.67;;;-0.70;99.90;;;;;;5047313;28;20069;-57
2023/01/18 05:17:34;;;;;;;14.63;8.50;;;-0.70;99.90;;;;;;5049149;28;20115;-56
2023/01/18 05:20:05;;;;;;;12.10;8.57;;;-0.70;99.90;;;;;;5052860;28;20116;-56
2023/01/18 05:22:32;;;;;;;15.65;9.43;;;-0.80;99.90;;;;;;5052423;28;20036;-59
2023/01/18 05:24:58;;;;;;;14.02;8.93;;;-0.70;99.90;;;;;;5050895;28;20040;-60
2023/01/18 05:27:23;;;;;;;16.48;10.13;;;-0.80;99.90;;;;;;5052096;28;20056;-59
2023/01/18 05:29:49;;;;;;;14.53;8.73;;;-0.80;99.90;;;;;;5052151;28;20045;-56
2023/01/18 05:32:15;;;;;;;26.95;11.00;;;-0.80;99.90;;;;;;5052215;28;20120;-53
2023/01/18 05:34:41;;;;;;;13.73;8.32;;;-0.80;99.90;;;;;;5051110;28;20444;-53
2023/01/18 05:37:07;;;;;;;14.80;9.47;;;-0.80;99.90;;;;;;5051994;28;20041;-54
2023/01/18 05:39:32;;;;;;;14.70;9.00;;;-0.80;99.90;;;;;;5051850;28;20087;-58
2023/01/18 05:41:58;;;;;;;15.50;9.63;;;-0.80;99.90;;;;;;5051809;28;20832;-59
2023/01/18 05:44:24;;;;;;;16.70;9.75;;;-0.90;99.90;;;;;;5051071;28;20072;-58
2023/01/18 05:46:49;;;;;;;14.67;8.87;;;-0.90;99.90;;;;;;5052105;28;20120;-57
2023/01/18 05:49:15;;;;;;;14.13;9.13;;;-0.90;99.90;;;;;;5051924;28;20045;-55
2023/01/18 05:51:41;;;;;;;13.87;9.17;;;-0.90;99.90;;;;;;5052499;28;20044;-57
2023/01/18 05:54:06;;;;;;;14.10;9.47;;;-0.90;99.90;;;;;;5050984;28;20307;-59
2023/01/18 05:56:32;;;;;;;13.07;9.17;;;-0.90;99.90;;;;;;5051945;28;20086;-55
2023/01/18 05:58:58;;;;;;;13.87;9.63;;;-0.90;99.90;;;;;;5051845;28;20041;-54
2023/01/18 06:01:23;;;;;;;14.02;8.82;;;-0.90;99.90;;;;;;5052314;28;20037;-56
2023/01/18 06:03:49;;;;;;;14.87;9.60;;;-0.90;99.90;;;;;;5050594;28;20048;-58
2023/01/18 06:06:15;;;;;;;13.27;10.37;;;-0.90;99.90;;;;;;5051579;28;20041;-58
2023/01/18 06:08:41;;;;;;;14.80;10.05;;;-0.90;99.90;;;;;;5051018;28;20082;-59
2023/01/18 06:11:08;;;;;;;15.55;10.20;;;-0.90;99.90;;;;;;5051607;28;20048;-58
2023/01/18 06:13:33;;;;;;;23.65;10.48;;;-0.90;99.90;;;;;;5050948;28;20041;-55
2023/01/18 06:16:00;;;;;;;14.97;11.53;;;-0.90;99.90;;;;;;5051331;28;20090;-55
2023/01/18 06:18:29;;;;;;;17.85;10.88;;;-0.90;99.90;;;;;;5050613;28;20029;-56
2023/01/18 06:20:56;;;;;;;17.45;10.65;;;-0.90;99.90;;;;;;5038838;28;20481;-53
2023/01/18 06:23:22;;;;;;;18.02;10.30;;;-0.90;99.90;;;;;;5050271;28;20048;-56
2023/01/18 06:25:48;;;;;;;29.70;10.25;;;-0.90;99.90;;;;;;5050771;28;20417;-57
2023/01/18 06:28:13;;;;;;;15.40;11.00;;;-0.90;99.90;;;;;;5051161;28;20045;-57
2023/01/18 06:30:41;;;;;;;14.20;11.73;;;-0.90;99.90;;;;;;5050149;28;20045;-58
2023/01/18 06:33:07;;;;;;;16.42;11.52;;;-0.90;99.90;;;;;;5050645;28;20110;-56
2023/01/18 06:35:33;;;;;;;13.95;11.18;;;-1.00;99.90;;;;;;5050806;28;20041;-58
2023/01/18 06:37:59;;;;;;;16.02;11.30;;;-1.00;99.90;;;;;;5050803;28;20033;-56
2023/01/18 06:40:25;;;;;;;17.03;11.53;;;-1.00;99.90;;;;;;5051412;28;20041;-57
2023/01/18 06:42:51;;;;;;;18.83;12.13;;;-1.00;99.90;;;;;;5050527;28;20120;-61
2023/01/18 06:45:18;;;;;;;24.90;13.80;;;-1.00;99.90;;;;;;5050462;28;20120;-54
2023/01/18 06:47:44;;;;;;;15.68;11.80;;;-1.00;99.90;;;;;;5050443;28;20037;-53
2023/01/18 06:50:10;;;;;;;16.47;10.93;;;-1.00;99.90;;;;;;5050832;28;20044;-57
2023/01/18 06:52:36;;;;;;;20.30;12.20;;;-1.00;99.90;;;;;;5049877;28;20108;-57
2023/01/18 06:55:01;;;;;;;21.27;14.47;;;-1.00;99.90;;;;;;5049897;28;20124;-56
2023/01/18 06:57:27;;;;;;;19.73;12.60;;;-1.00;99.90;;;;;;5049211;28;20466;-56
2023/01/18 06:59:53;;;;;;;20.27;12.10;;;-1.00;99.90;;;;;;5050907;28;20498;-57
2023/01/18 07:02:19;;;;;;;;;;;-1.00;99.90;;;;;;5051089;28;20406;-54
2023/01/18 07:04:45;;;;;;;20.73;13.27;;;-1.00;99.90;;;;;;5049056;28;19917;-57
2023/01/18 07:07:12;;;;;;;22.52;13.98;;;-1.00;99.90;;;;;;5049562;28;20462;-56
2023/01/18 07:09:38;;;;;;;19.58;12.98;;;-1.00;99.90;;;;;;5050144;28;20102;-57
2023/01/18 07:12:03;;;;;;;23.87;14.23;;;-1.00;99.90;;;;;;5045754;28;20120;-55
2023/01/18 07:14:29;;;;;;;20.20;12.77;;;-1.00;99.90;;;;;;5049542;28;20522;-59
2023/01/18 07:16:55;;;;;;;22.60;14.97;;;-1.10;99.90;;;;;;5049404;28;20040;-58
2023/01/18 07:19:20;;;;;;;20.60;14.03;;;-1.10;99.90;;;;;;5050130;28;20471;-56
2023/01/18 07:21:46;;;;;;;21.13;14.27;;;-1.10;99.90;;;;;;5046349;28;20127;-55
2023/01/18 07:24:11;;;;;;;22.40;13.70;;;-1.10;99.90;;;;;;5048861;28;20043;-54
2023/01/18 07:26:37;;;;;;;21.73;14.97;;;-1.10;99.90;;;;;;5050300;28;20466;-59
2023/01/18 07:29:03;;;;;;;21.90;14.73;;;-1.10;99.90;;;;;;5049988;28;20043;-57
2023/01/18 07:31:29;;;;;;;20.93;14.23;;;-1.10;99.90;;;;;;5050285;28;20041;-56
2023/01/18 07:33:55;;;;;;;22.98;15.45;;;-1.10;99.90;;;;;;5049431;28;20500;-56
2023/01/18 07:36:21;;;;;;;22.60;14.45;;;-1.10;99.90;;;;;;5049626;28;20045;-54
2023/01/18 07:38:47;;;;;;;20.63;15.02;;;-1.10;99.90;;;;;;5049608;28;20041;-56
2023/01/18 07:41:15;;;;;;;19.98;13.77;;;-1.10;99.90;;;;;;5049870;28;20033;-59
2023/01/18 07:43:43;;;;;;;22.42;15.23;;;-1.10;99.90;;;;;;5047684;28;20044;-58
2023/01/18 07:46:11;;;;;;;28.88;15.60;;;-1.10;99.90;;;;;;5037851;28;20037;-53
2023/01/18 07:48:37;;;;;;;19.92;14.40;;;-1.10;99.90;;;;;;5049553;28;20536;-55
2023/01/18 07:51:05;;;;;;;20.23;15.10;;;-1.00;99.90;;;;;;5049923;28;20148;-53
2023/01/18 07:53:33;;;;;;;24.65;14.73;;;-1.00;99.90;;;;;;5048754;28;20056;-56
2023/01/18 07:56:00;;;;;;;21.25;14.43;;;-1.00;99.90;;;;;;5049873;28;20670;-56
2023/01/18 07:58:26;;;;;;;23.67;13.20;;;-1.00;99.90;;;;;;5048818;28;20056;-60
2023/01/18 08:00:52;;;;;;;20.52;14.68;;;-0.90;99.90;;;;;;5050270;28;20041;-58
2023/01/18 08:03:18;;;;;;;21.03;13.37;;;-0.90;99.90;;;;;;5048260;28;20032;-59
2023/01/18 08:05:44;;;;;;;19.52;13.55;;;-0.80;99.90;;;;;;5048595;28;20041;-56
2023/01/18 08:08:12;;;;;;;18.23;12.82;;;-0.80;99.90;;;;;;5047543;28;20060;-54
2023/01/18 08:10:38;;;;;;;16.48;12.40;;;-0.70;99.90;;;;;;5048912;28;20509;-56
2023/01/18 08:13:05;;;;;;;16.85;11.65;;;-0.50;99.90;;;;;;5048296;28;20041;-57
2023/01/18 08:15:31;;;;;;;16.50;11.35;;;-0.40;99.90;;;;;;5048330;28;20045;-57
2023/01/18 08:18:00;;;;;;;17.02;11.95;;;-0.20;99.90;;;;;;5048658;28;20049;-58
2023/01/18 08:20:26;;;;;;;17.85;11.38;;;0.00;99.90;;;;;;5048951;28;20490;-56
2023/01/18 08:22:56;;;;;;;15.93;10.87;;;0.40;99.90;;;;;;5048921;28;20048;-56
2023/01/18 08:25:23;;;;;;;18.13;10.55;;;0.70;99.90;;;;;;5048314;28;20051;-59
2023/01/18 08:27:49;;;;;;;17.05;9.50;;;1.10;99.90;;;;;;5048974;28;20518;-54
2023/01/18 08:30:14;;;;;;;15.57;8.93;;;1.50;99.90;;;;;;5048973;28;20040;-56
2023/01/18 08:32:40;;;;;;;14.05;9.23;;;1.80;99.90;;;;;;5045130;28;20037;-54
2023/01/18 08:35:06;;;;;;;11.43;8.50;;;2.20;99.90;;;;;;5046266;28;20418;-59
2023/01/18 08:37:32;;;;;;;12.68;8.13;;;2.50;99.90;;;;;;5047587;28;20078;-57
2023/01/18 08:39:58;;;;;;;10.47;7.33;;;2.80;99.90;;;;;;5048722;28;20025;-57
2023/01/18 08:42:23;;;;;;;15.17;8.80;;;3.20;99.90;;;;;;5049265;28;20043;-58
2023/01/18 08:44:49;;;;;;;10.47;7.33;;;3.50;99.90;;;;;;5047486;28;20646;-54
2023/01/18 08:47:14;;;;;;;11.90;7.23;;;3.70;99.90;;;;;;5048241;28;20048;-58
2023/01/18 08:49:40;;;;;;;8.30;6.80;;;3.90;99.90;;;;;;5048736;28;20053;-56
2023/01/18 08:52:06;;;;;;;12.88;7.20;;;4.30;99.90;;;;;;5048723;28;20037;-53
2023/01/18 08:54:32;;;;;;;14.20;7.10;;;4.70;99.90;;;;;;5051317;28;20087;-60
2023/01/18 08:56:57;;;;;;;11.43;6.03;;;5.10;99.90;;;;;;5052053;28;20513;-58
2023/01/18 08:59:23;;;;;;;11.87;6.57;;;5.30;99.90;;;;;;5053092;28;20505;-58
2023/01/18 09:01:48;;;;;;;8.47;5.90;;;5.50;99.90;;;;;;5052121;28;20075;-54
2023/01/18 09:04:14;;;;;;;8.27;6.28;;;5.80;99.90;;;;;;5051136;28;20067;-57
2023/01/18 09:06:40;;;;;;;7.30;5.50;;;5.80;99.90;;;;;;5050981;28;20040;-57
2023/01/18 09:09:06;;;;;;;8.50;6.20;;;5.90;99.90;;;;;;5046119;28;20030;-57
2023/01/18 09:11:31;;;;;;;9.13;6.60;;;6.30;99.90;;;;;;5056088;28;20392;-59
2023/01/18 09:13:58;;;;;;;6.60;5.20;;;6.80;99.90;;;;;;5051465;28;20033;-56
2023/01/18 09:16:24;;;;;;;11.73;7.38;;;7.20;99.90;;;;;;5058317;28;20036;-56
2023/01/18 09:18:49;;;;;;;10.03;6.20;;;7.60;99.90;;;;;;5062545;28;20090;-58
2023/01/18 09:21:16;;;;;;;10.37;6.00;;;8.00;99.60;;;;;;5058325;28;20167;-53
2023/01/18 09:23:42;;;;;;;;;;;8.40;99.30;;;;;;5063091;28;20036;-57
2023/01/18 09:26:15;;;;;;;10.07;5.38;;;8.80;97.30;;;;;;5054857;28;19966;-54
2023/01/18 09:28:47;;;;;;;8.75;5.45;;;9.30;97.00;;;;;;5054626;28;20036;-57
2023/01/18 09:31:12;;;;;;;8.65;5.07;;;9.80;96.60;;;;;;5060554;28;20044;-55
2023/01/18 09:33:41;;;;;;;9.45;5.00;;;10.00;95.20;;;;;;5056718;28;20075;-56
2023/01/18 09:36:08;;;;;;;7.00;4.63;;;10.20;94.00;;;;;;5058150;28;20126;-54
2023/01/18 09:38:35;;;;;;;6.38;5.00;;;10.50;93.90;;;;;;5060207;28;20048;-53
2023/01/18 09:41:04;;;;;;;11.48;4.53;;;10.80;92.60;;;;;;5061420;28;20040;-56
2023/01/18 09:43:41;;;;;;;6.10;4.03;;;10.80;91.30;;;;;;5058255;28;20060;-54
2023/01/18 09:46:19;;;;;;;5.60;4.90;;;10.80;90.50;;;;;;5052063;28;20075;-55
2023/01/18 09:48:51;;;;;;;7.43;5.38;;;11.20;90.40;;;;;;5057508;28;20044;-56
2023/01/18 09:51:31;;;;;;;6.55;4.88;;;11.30;88.60;;;;;;5062035;28;20048;-56
2023/01/18 09:54:15;;;;;;;7.75;4.97;;;11.50;90.10;;;;;;5053914;28;20037;-55
2023/01/18 09:56:53;;;;;;;4.95;4.13;;;11.80;88.10;;;;;;5058173;28;20040;-55
2023/01/18 09:59:37;;;;;;;5.80;3.47;;;11.40;83.00;;;;;;5052054;28;20094;-54
2023/01/18 10:02:22;;;;;;;7.63;4.65;;;11.10;85.90;;;;;;5052586;28;20043;-54
2023/01/18 10:04:55;;;;;;;7.47;4.53;;;10.80;85.20;;;;;;5051120;28;20456;-56
2023/01/18 10:07:23;;;;;;;5.25;4.30;;;10.00;83.70;;;;;;5049944;28;20040;-53
2023/01/18 10:09:53;;;;;;;6.80;4.10;;;9.60;88.40;;;;;;5050442;28;20131;-54
2023/01/18 10:12:31;;;;;;;6.47;4.97;;;9.50;90.90;;;;;;5052411;28;20033;-55
2023/01/18 10:15:01;;;;;;;6.95;4.72;;;9.80;90.40;;;;;;5050228;28;20045;-56
2023/01/18 10:17:37;;;;;;;7.55;4.05;;;10.10;90.10;;;;;;5053105;28;20641;-56
2023/01/18 10:20:36;;;;;;;6.68;4.35;;;10.50;88.60;;;;;;5053227;28;20123;-54
2023/01/18 10:23:11;;;;;;;8.73;4.50;;;11.10;87.20;;;;;;5044089;28;20514;-51
2023/01/18 10:25:43;;;;;;;14.70;5.40;;;11.20;83.90;;;;;;5048048;28;20715;-54
2023/01/18 10:28:15;;;;;;;6.75;4.70;;;11.30;82.40;;;;;;5049792;28;20259;-53
2023/01/18 10:31:09;;;;;;;9.27;4.50;;;11.30;80.20;;;;;;5068581;28;20059;-56
2023/01/18 10:33:39;;;;;;;8.27;4.72;;;11.20;77.90;;;;;;5049956;28;20143;-52
2023/01/18 10:36:31;;;;;;;7.90;5.32;;;10.90;78.90;;;;;;5047522;28;20473;-53
2023/01/18 10:39:00;;;;;;;8.82;5.05;;;10.30;78.60;;;;;;5050736;28;20586;-53
2023/01/18 10:41:35;;;;;;;7.28;5.43;;;9.20;80.80;;;;;;5050192;28;20033;-55
2023/01/18 10:44:01;;;;;;;10.90;5.35;;;8.70;84.20;;;;;;5049188;28;20053;-54
2023/01/18 10:46:27;;;;;;;9.00;5.10;;;8.80;87.70;;;;;;5050071;28;20040;-54
2023/01/18 10:48:56;;;;;;;7.05;4.80;;;8.90;87.20;;;;;;5049882;28;20322;-55
2023/01/18 10:51:30;;;;;;;9.57;4.72;;;9.30;88.00;;;;;;5050223;28;20029;-51
2023/01/18 10:53:57;;;;;;;7.95;5.18;;;9.80;87.50;;;;;;5047081;28;20110;-53
2023/01/18 10:56:24;;;;;;;7.30;5.10;;;10.10;85.60;;;;;;5041010;28;20033;-56
2023/01/18 10:58:50;;;;;;;10.05;6.13;;;10.40;84.00;;;;;;5050947;28;20485;-56
2023/01/18 11:01:53;;;;;;;8.03;5.33;;;10.50;83.20;;;;;;5052952;28;20032;-53
2023/01/18 11:04:24;;;;;;;12.77;6.07;;;10.50;80.70;;;;;;5041115;28;20080;-52
2023/01/18 11:06:53;;;;;;;7.35;5.03;;;10.10;81.40;;;;;;5046633;28;20121;-55
2023/01/18 11:09:50;;;;;;;5.35;4.13;;;9.80;82.40;;;;;;5048218;28;20048;-53
2023/01/18 11:12:37;;;;;;;7.80;5.50;;;9.80;85.10;;;;;;5051105;28;20041;-55
2023/01/18 11:15:14;;;;;;;8.30;5.33;;;9.60;84.60;;;;;;5049377;28;20084;-54
2023/01/18 11:17:49;;;;;;;11.35;5.43;;;9.20;84.80;;;;;;5049812;28;20291;-54
2023/01/18 11:20:18;;;;;;;8.50;5.38;;;8.80;86.40;;;;;;5049399;28;20033;-53
2023/01/18 11:22:58;;;;;;;6.43;5.05;;;8.30;88.40;;;;;;5053140;28;20389;-56
2023/01/18 11:25:26;;;;;;;6.70;5.15;;;8.00;90.40;;;;;;5051772;28;20539;-56
2023/01/18 11:27:59;;;;;;;9.68;5.22;;;8.00;91.80;;;;;;5050154;28;20044;-53
2023/01/18 11:30:26;;;;;;;10.77;5.88;;;7.90;91.70;;;;;;5050409;28;20406;-56
2023/01/18 11:32:52;;;;;;;8.38;5.53;;;8.10;91.80;;;;;;5053340;28;20043;-54
2023/01/18 11:35:36;;;;;;;6.97;4.90;;;8.40;92.40;;;;;;5050521;28;20041;-54
2023/01/18 11:38:04;;;;;;;7.75;4.90;;;8.90;91.60;;;;;;5053178;28;20522;-56
2023/01/18 11:40:32;;;;;;;6.78;5.05;;;9.20;91.10;;;;;;5052437;28;20053;-54
2023/01/18 11:43:21;;;;;;;10.60;4.97;;;9.70;90.80;;;;;;5050765;28;20505;-51
2023/01/18 11:46:07;;;;;;;8.68;5.30;;;10.00;90.00;;;;;;5048567;28;20052;-55
2023/01/18 11:48:54;;;;;;;8.20;5.18;;;10.00;87.80;;;;;;5049000;28;20528;-57
2023/01/18 11:51:49;;;;;;;6.43;4.13;;;10.00;86.90;;;;;;5050782;28;20076;-56
2023/01/18 11:54:21;;;;;;;7.47;4.43;;;10.10;87.10;;;;;;5047007;28;20049;-52
2023/01/18 11:56:54;;;;;;;5.75;4.55;;;10.00;87.00;;;;;;5052517;28;20059;-51
2023/01/18 11:59:41;;;;;;;6.50;4.85;;;9.60;86.90;;;;;;5050853;28;20039;-55
2023/01/18 12:02:22;;;;;;;7.82;4.25;;;9.40;87.70;;;;;;5052168;28;20041;-51
2023/01/18 12:05:20;;;;;;;6.57;4.95;;;9.50;88.00;;;;;;5053397;28;20528;-54
2023/01/18 12:07:59;;;;;;;5.63;4.97;;;9.90;88.50;;;;;;5050220;28;20044;-55
2023/01/18 12:10:28;;;;;;;8.73;4.88;;;10.40;87.70;;;;;;5055110;28;20079;-56
2023/01/18 12:13:32;;;;;;;7.53;4.22;;;10.70;86.80;;;;;;5053219;28;20052;-57
2023/01/18 12:16:19;;;;;;;7.40;4.20;;;11.50;84.20;;;;;;5054246;28;20045;-55
2023/01/18 12:19:01;;;;;;;6.15;3.97;;;12.00;82.00;;;;;;5048237;28;20033;-57
2023/01/18 12:21:50;;;;;;;9.23;4.75;;;12.30;80.30;;;;;;5049873;28;20037;-54
2023/01/18 12:24:33;;;;;;;7.25;4.13;;;12.50;77.30;;;;;;5045836;28;20643;-52
2023/01/18 12:27:06;;;;;;;7.18;4.43;;;13.00;77.80;;;;;;5054557;28;20442;-55
2023/01/18 12:29:47;;;;;;;6.80;4.30;;;13.70;76.50;;;;;;5051726;28;20056;-55
2023/01/18 12:32:40;;;;;;;10.02;4.53;;;14.10;73.40;;;;;;5052707;28;20040;-55
2023/01/18 12:35:18;;;;;;;6.22;4.25;;;14.30;72.70;;;;;;5050122;28;20045;-57
2023/01/18 12:38:14;;;;;;;8.30;4.18;;;14.40;70.70;;;;;;5052009;28;20072;-54
2023/01/18 12:41:10;;;;;;;8.38;3.85;;;14.40;69.80;;;;;;5055049;28;20036;-53
2023/01/18 12:44:00;;;;;;;9.45;3.95;;;14.40;67.90;;;;;;5049280;28;20133;-53
2023/01/18 12:46:36;;;;;;;6.78;4.55;;;14.30;67.50;;;;;;5051015;28;20414;-56
2023/01/18 12:49:10;;;;;;;6.70;3.45;;;14.10;67.50;;;;;;5046996;28;20914;-55
2023/01/18 12:51:37;;;;;;;6.70;3.38;;;14.00;67.60;;;;;;5054008;28;20037;-54
2023/01/18 12:54:30;;;;;;;5.18;4.13;;;14.10;67.30;;;;;;5052672;28;20119;-54
2023/01/18 12:56:57;;;;;;;4.20;3.33;;;14.20;66.10;;;;;;5061011;28;20498;-52
2023/01/18 12:59:27;;;;;;;8.57;4.20;;;13.90;66.20;;;;;;5035626;28;20116;-55
2023/01/18 13:02:17;;;;;;;9.13;4.43;;;13.70;66.30;;;;;;5052835;28;20044;-53
2023/01/18 13:04:51;;;;;;;8.23;5.18;;;13.70;66.80;;;;;;5049442;28;20135;-55
2023/01/18 13:07:24;;;;;;;6.72;3.17;;;13.60;66.50;;;;;;5054081;28;20049;-56
2023/01/18 13:09:50;;;;;;;8.32;4.25;;;13.80;67.20;;;;;;5051623;28;20044;-55
2023/01/18 13:12:16;;;;;;;5.32;3.20;;;13.80;66.90;;;;;;5051707;28;20039;-57
2023/01/18 13:14:50;;;;;;;5.53;3.20;;;13.80;66.70;;;;;;5053716;28;20401;-57
2023/01/18 13:17:27;;;;;;;7.38;3.75;;;13.20;66.50;;;;;;5050354;28;20033;-55
2023/01/18 13:19:59;;;;;;;5.60;2.88;;;13.40;66.70;;;;;;5052587;28;20130;-53
2023/01/18 13:22:27;;;;;;;3.42;2.78;;;13.50;66.70;;;;;;5054367;28;20040;-55
2023/01/18 13:25:11;;;;;;;4.72;2.97;;;13.90;67.00;;;;;;5050340;28;20036;-53
2023/01/18 13:27:37;;;;;;;4.30;3.13;;;14.00;65.40;;;;;;5052230;28;20522;-56
2023/01/18 13:30:24;;;;;;;4.25;2.78;;;14.00;66.00;;;;;;5052146;28;20045;-56
2023/01/18 13:32:50;;;;;;;4.10;3.07;;;13.90;65.30;;;;;;5055098;28;20048;-56